Time;durP1;ratioP1;P1;durP2;ratioP2;P2;SDS_P1;SDS_P2;PMS_P1;PMS_P2;Temp;Humidity;BMP_temperature;BMP_pressure;BME280_temperature;BME280_humidity;BME280_pressure;Samples;Min_cycle;Max_cycle;Signal;HPM_P1;HPM_P2
2023/05/19 00:01:37;;;;;;;7.93;5.63;;;7.90;99.90;;;;;;6216454;23;20016;-74
2023/05/19 00:04:04;;;;;;;10.75;4.80;;;7.80;99.90;;;;;;6215799;23;20008;-74
2023/05/19 00:06:31;;;;;;;11.57;5.07;;;7.80;99.90;;;;;;6216238;23;20020;-74
2023/05/19 00:09:11;;;;;;;10.95;5.72;;;7.80;99.90;;;;;;6189496;23;20020;-74
2023/05/19 00:11:38;;;;;;;17.85;6.22;;;7.80;99.90;;;;;;6216393;23;20012;-74
2023/05/19 00:14:06;;;;;;;12.52;5.72;;;7.70;99.90;;;;;;6216451;23;20024;-75
2023/05/19 00:16:33;;;;;;;12.00;5.85;;;7.70;99.90;;;;;;6215841;23;20491;-75
2023/05/19 00:19:00;;;;;;;11.30;5.50;;;7.70;99.90;;;;;;6216330;23;20016;-74
2023/05/19 00:21:26;;;;;;;10.38;6.10;;;7.60;99.90;;;;;;6216149;23;20377;-74
2023/05/19 00:23:52;;;;;;;9.75;6.10;;;7.60;99.90;;;;;;6215736;23;20048;-74
2023/05/19 00:26:18;;;;;;;12.50;6.53;;;7.60;99.90;;;;;;6216298;23;20404;-75
2023/05/19 00:28:44;;;;;;;13.45;6.05;;;7.60;99.90;;;;;;6215839;23;20044;-74
2023/05/19 00:31:09;;;;;;;10.70;6.05;;;7.60;99.90;;;;;;6215288;23;20019;-73
2023/05/19 00:33:35;;;;;;;10.20;5.97;;;7.60;99.90;;;;;;6215479;23;20016;-73
2023/05/19 00:36:02;;;;;;;10.88;6.13;;;7.60;99.90;;;;;;6215637;23;20020;-73
2023/05/19 00:38:30;;;;;;;10.20;5.75;;;7.60;99.90;;;;;;6188350;23;20330;-73
2023/05/19 00:40:55;;;;;;;;;;;7.50;99.90;;;;;;6215376;23;20449;-74
2023/05/19 00:43:21;;;;;;;13.00;6.03;;;7.50;99.90;;;;;;6215698;23;19926;-73
2023/05/19 00:45:47;;;;;;;12.90;6.07;;;7.50;99.90;;;;;;6215507;23;20016;-73
2023/05/19 00:48:12;;;;;;;16.85;7.07;;;7.50;99.90;;;;;;6215692;23;20017;-73
2023/05/19 00:50:39;;;;;;;12.25;6.47;;;7.50;99.90;;;;;;6189421;23;20027;-73
2023/05/19 00:53:05;;;;;;;16.00;7.07;;;7.40;99.90;;;;;;6215284;23;20332;-73
2023/05/19 00:55:32;;;;;;;10.75;6.13;;;7.40;99.90;;;;;;6215202;23;20017;-73
2023/05/19 00:57:57;;;;;;;12.63;7.40;;;7.50;99.90;;;;;;6214853;23;20511;-73
2023/05/19 01:00:23;;;;;;;16.00;6.38;;;7.40;99.90;;;;;;6215481;23;20013;-73
2023/05/19 01:02:50;;;;;;;11.85;6.82;;;7.40;99.90;;;;;;6215538;23;20017;-74
2023/05/19 01:05:16;;;;;;;11.80;7.15;;;7.40;99.90;;;;;;6215315;23;20055;-73
2023/05/19 01:07:42;;;;;;;15.90;7.28;;;7.40;99.90;;;;;;6215535;23;20017;-73
2023/05/19 01:10:08;;;;;;;11.43;7.40;;;7.40;99.90;;;;;;6215933;23;20008;-74
2023/05/19 01:12:34;;;;;;;17.45;8.60;;;7.40;99.90;;;;;;6215166;23;20403;-75
2023/05/19 01:15:01;;;;;;;14.02;7.82;;;7.40;99.90;;;;;;6216167;23;20384;-76
2023/05/19 01:17:44;;;;;;;16.08;7.22;;;7.30;99.90;;;;;;6215221;23;20071;-75
2023/05/19 01:20:20;;;;;;;12.82;7.40;;;7.30;99.90;;;;;;6214949;23;20083;-74
2023/05/19 01:22:55;;;;;;;13.15;8.30;;;7.30;99.90;;;;;;6214880;23;20017;-75
2023/05/19 01:26:20;;;;;;;14.93;7.95;;;7.30;99.90;;;;;;6215319;23;20035;-76
2023/05/19 01:29:15;;;;;;;16.50;8.13;;;7.20;99.90;;;;;;6065672;23;20015;-74
2023/05/19 01:31:43;;;;;;;12.48;7.13;;;7.20;99.90;;;;;;6065551;23;20025;-75
2023/05/19 01:34:11;;;;;;;11.98;7.18;;;7.20;99.90;;;;;;6065544;23;20034;-75
2023/05/19 01:36:39;;;;;;;15.93;8.68;;;7.20;99.90;;;;;;6065523;23;20419;-74
2023/05/19 01:39:05;;;;;;;12.40;7.88;;;7.20;99.90;;;;;;6065311;23;20059;-74
2023/05/19 01:41:33;;;;;;;15.68;7.95;;;7.20;99.90;;;;;;6065108;23;20045;-74
2023/05/19 01:43:59;;;;;;;17.92;8.75;;;7.20;99.90;;;;;;6065424;23;20023;-75
2023/05/19 01:46:25;;;;;;;13.90;8.80;;;7.20;99.90;;;;;;6065108;23;20062;-74
2023/05/19 01:48:52;;;;;;;15.75;7.80;;;7.20;99.90;;;;;;6065447;23;20023;-74
2023/05/19 01:51:17;;;;;;;16.38;8.63;;;7.20;99.90;;;;;;6065264;23;20050;-75
2023/05/19 01:53:43;;;;;;;15.93;8.18;;;7.20;99.90;;;;;;6065432;23;20026;-74
2023/05/19 01:56:09;;;;;;;19.25;8.75;;;7.20;99.90;;;;;;6065315;23;20120;-75
2023/05/19 01:58:46;;;;;;;16.45;8.80;;;7.20;99.90;;;;;;6082492;23;20081;-75
2023/05/19 02:01:39;;;;;;;17.88;9.20;;;7.10;99.90;;;;;;6163643;23;20027;-75
2023/05/19 02:04:26;;;;;;;17.55;7.85;;;7.10;99.90;;;;;;6215373;23;20017;-74
2023/05/19 02:07:19;;;;;;;15.27;8.20;;;7.10;99.90;;;;;;6215496;23;20028;-74
2023/05/19 02:10:03;;;;;;;18.13;8.35;;;7.10;99.90;;;;;;6217422;23;20441;-73
2023/05/19 02:12:34;;;;;;;17.75;9.38;;;7.10;99.90;;;;;;6217308;23;20420;-75
2023/05/19 02:15:03;;;;;;;17.10;8.27;;;7.10;99.90;;;;;;6217275;23;20020;-74
2023/05/19 02:17:32;;;;;;;21.65;9.70;;;7.10;99.90;;;;;;6217408;23;20040;-74
2023/05/19 02:19:57;;;;;;;;;;;7.00;99.90;;;;;;6217981;23;20092;-75
2023/05/19 02:22:23;;;;;;;17.55;8.45;;;7.00;99.90;;;;;;6216627;23;19943;-74
2023/05/19 02:24:50;;;;;;;15.10;8.82;;;7.00;99.90;;;;;;6216778;23;20016;-75
2023/05/19 02:27:17;;;;;;;17.60;8.63;;;7.00;99.90;;;;;;6216586;23;20016;-74
2023/05/19 02:29:42;;;;;;;18.10;9.43;;;7.00;99.90;;;;;;6216853;23;20017;-74
2023/05/19 02:32:09;;;;;;;17.20;9.50;;;7.00;99.90;;;;;;6216598;23;20012;-75
2023/05/19 02:34:35;;;;;;;17.25;9.05;;;7.00;99.90;;;;;;6217255;23;20028;-75
2023/05/19 02:37:01;;;;;;;16.70;8.57;;;7.00;99.90;;;;;;6216524;23;20059;-75
2023/05/19 02:39:28;;;;;;;19.80;8.73;;;6.90;99.90;;;;;;6217172;23;20050;-75
2023/05/19 02:41:53;;;;;;;15.37;8.27;;;7.00;99.90;;;;;;6216653;23;20052;-75
2023/05/19 02:44:19;;;;;;;14.25;8.35;;;7.00;99.90;;;;;;6216414;23;20079;-74
2023/05/19 02:46:44;;;;;;;17.85;9.50;;;7.00;99.90;;;;;;6216378;23;20394;-74
2023/05/19 02:49:10;;;;;;;18.80;9.38;;;6.90;99.90;;;;;;6216516;23;20119;-73
2023/05/19 02:51:36;;;;;;;16.15;8.95;;;6.90;99.90;;;;;;6217348;23;20013;-74
2023/05/19 02:54:02;;;;;;;17.58;9.00;;;6.90;99.90;;;;;;6217023;23;20440;-74
2023/05/19 02:56:27;;;;;;;15.45;8.98;;;6.90;99.90;;;;;;6216685;23;20009;-74
2023/05/19 02:58:53;;;;;;;16.38;8.90;;;6.90;99.90;;;;;;6217086;23;20017;-74
2023/05/19 03:01:20;;;;;;;19.63;9.88;;;6.80;99.90;;;;;;6217094;23;20021;-74
2023/05/19 03:03:46;;;;;;;16.90;9.60;;;6.80;99.90;;;;;;6216593;23;20025;-74
2023/05/19 03:06:12;;;;;;;19.70;10.82;;;6.80;99.90;;;;;;6216862;23;20059;-73
2023/05/19 03:08:39;;;;;;;18.35;10.18;;;6.80;99.90;;;;;;6217482;23;20021;-77
2023/05/19 03:11:04;;;;;;;18.20;9.48;;;6.80;99.90;;;;;;6216904;23;20026;-73
2023/05/19 03:13:30;;;;;;;20.73;9.80;;;6.80;99.90;;;;;;6216920;23;20083;-73
2023/05/19 03:15:57;;;;;;;13.73;9.15;;;6.70;99.90;;;;;;6216472;23;20448;-74
2023/05/19 03:18:24;;;;;;;17.57;9.73;;;6.70;99.90;;;;;;6216640;23;20020;-74
2023/05/19 03:20:52;;;;;;;18.45;9.50;;;6.70;99.90;;;;;;6216334;23;20016;-74
2023/05/19 03:23:18;;;;;;;16.45;9.98;;;6.70;99.90;;;;;;6216856;23;20032;-74
2023/05/19 03:25:44;;;;;;;16.08;9.48;;;6.60;99.90;;;;;;6216612;23;20021;-75
2023/05/19 03:28:10;;;;;;;20.02;10.07;;;6.60;99.90;;;;;;6216680;23;20031;-75
2023/05/19 03:30:36;;;;;;;17.15;10.18;;;6.60;99.90;;;;;;6216591;23;20062;-75
2023/05/19 03:33:01;;;;;;;15.15;9.80;;;6.60;99.90;;;;;;6216417;23;20020;-74
2023/05/19 03:35:27;;;;;;;21.05;10.75;;;6.60;99.90;;;;;;6165052;23;20099;-75
2023/05/19 03:37:53;;;;;;;19.45;10.20;;;6.60;99.90;;;;;;6216176;23;20048;-75
2023/05/19 03:40:18;;;;;;;17.67;9.68;;;6.60;99.90;;;;;;6216036;23;20031;-76
2023/05/19 03:42:44;;;;;;;15.48;9.80;;;6.60;99.90;;;;;;6215765;23;20019;-75
2023/05/19 03:45:10;;;;;;;17.20;10.20;;;6.60;99.90;;;;;;6189989;23;20020;-75
2023/05/19 03:47:35;;;;;;;16.50;9.85;;;6.60;99.90;;;;;;6215435;23;20548;-75
2023/05/19 03:50:01;;;;;;;19.30;10.35;;;6.70;99.90;;;;;;6215977;23;20024;-75
2023/05/19 03:52:26;;;;;;;17.52;10.15;;;6.70;99.90;;;;;;6215714;23;20009;-75
2023/05/19 03:54:52;;;;;;;16.00;10.02;;;6.70;99.90;;;;;;6215993;23;20075;-75
2023/05/19 03:57:18;;;;;;;16.25;10.30;;;6.70;99.90;;;;;;6215361;23;20016;-75
2023/05/19 03:59:44;;;;;;;17.58;10.20;;;6.70;99.90;;;;;;6215253;23;20086;-76
2023/05/19 04:02:09;;;;;;;21.23;9.60;;;6.80;99.90;;;;;;6215812;23;20508;-76
2023/05/19 04:04:36;;;;;;;14.38;9.90;;;6.80;99.90;;;;;;6216439;23;20013;-74
2023/05/19 04:07:02;;;;;;;18.48;10.95;;;6.90;99.90;;;;;;6220798;23;20021;-74
2023/05/19 04:09:28;;;;;;;19.20;9.65;;;6.90;99.90;;;;;;6218680;23;20086;-73
2023/05/19 04:11:53;;;;;;;18.85;10.75;;;7.00;99.90;;;;;;6189764;23;20051;-74
2023/05/19 04:14:19;;;;;;;17.60;10.23;;;7.00;99.90;;;;;;6216265;23;20017;-75
2023/05/19 04:16:45;;;;;;;20.65;10.88;;;7.00;99.90;;;;;;6216038;23;20021;-74
2023/05/19 04:19:10;;;;;;;19.77;10.25;;;7.10;99.90;;;;;;6189643;23;20013;-75
2023/05/19 04:21:36;;;;;;;15.20;10.20;;;7.10;99.90;;;;;;6215653;23;20016;-74
2023/05/19 04:24:05;;;;;;;15.57;10.32;;;7.20;99.90;;;;;;6216351;23;20095;-74
2023/05/19 04:26:32;;;;;;;16.35;10.50;;;7.30;99.90;;;;;;6216326;23;20055;-75
2023/05/19 04:28:58;;;;;;;15.52;10.75;;;7.30;99.90;;;;;;6215700;23;20560;-75
2023/05/19 04:31:24;;;;;;;17.40;10.00;;;7.50;99.90;;;;;;6215600;23;20040;-75
2023/05/19 04:33:52;;;;;;;19.80;10.57;;;7.60;99.90;;;;;;6215917;23;20021;-76
2023/05/19 04:36:20;;;;;;;24.05;11.07;;;7.70;99.90;;;;;;6215621;23;20020;-76
2023/05/19 04:38:45;;;;;;;;;;;7.80;99.90;;;;;;6216704;23;20023;-75
2023/05/19 04:41:11;;;;;;;16.10;10.55;;;8.70;99.90;;;;;;6216179;23;19924;-75
2023/05/19 04:43:40;;;;;;;19.33;11.68;;;9.60;99.90;;;;;;6216038;23;20013;-75
2023/05/19 04:46:12;;;;;;;15.70;10.18;;;10.60;99.90;;;;;;6215836;23;20039;-75
2023/05/19 04:48:41;;;;;;;18.35;9.55;;;10.70;99.90;;;;;;6215909;23;20020;-76
2023/05/19 04:51:07;;;;;;;17.75;10.00;;;11.30;99.90;;;;;;6215786;23;20498;-76
2023/05/19 04:53:33;;;;;;;15.23;8.93;;;12.10;99.90;;;;;;6188977;23;20051;-75
2023/05/19 04:56:02;;;;;;;15.65;8.88;;;12.60;99.90;;;;;;6188737;23;20032;-76
2023/05/19 04:58:28;;;;;;;10.55;7.47;;;12.80;99.90;;;;;;6215909;23;20017;-76
2023/05/19 05:00:59;;;;;;;12.73;8.10;;;13.30;99.90;;;;;;6215736;23;20086;-77
2023/05/19 05:03:25;;;;;;;10.60;7.95;;;13.40;99.90;;;;;;6215471;23;20016;-76
2023/05/19 05:05:51;;;;;;;14.68;8.15;;;13.70;99.90;;;;;;6215796;23;20012;-76
2023/05/19 05:08:22;;;;;;;11.60;8.40;;;13.90;99.90;;;;;;6215431;23;20020;-75
2023/05/19 05:10:51;;;;;;;12.45;7.32;;;14.00;99.90;;;;;;6215317;23;20027;-74
2023/05/19 05:13:17;;;;;;;12.15;7.22;;;14.20;99.90;;;;;;6215485;23;20373;-73
2023/05/19 05:15:43;;;;;;;11.13;7.20;;;14.30;99.90;;;;;;6215270;23;20333;-74
2023/05/19 05:18:09;;;;;;;11.43;6.97;;;14.20;99.90;;;;;;6215810;23;20092;-73
2023/05/19 05:20:35;;;;;;;10.90;7.30;;;14.80;99.90;;;;;;6214859;23;20129;-74
2023/05/19 05:23:01;;;;;;;11.25;7.00;;;14.50;99.90;;;;;;6215378;23;20041;-75
2023/05/19 05:25:27;;;;;;;11.65;7.38;;;14.40;99.90;;;;;;6215635;23;20016;-74
2023/05/19 05:27:53;;;;;;;12.43;7.72;;;13.60;99.90;;;;;;6216053;23;20017;-75
2023/05/19 05:30:18;;;;;;;11.43;8.05;;;13.70;99.90;;;;;;6215287;23;20016;-74
2023/05/19 05:32:44;;;;;;;11.68;7.50;;;13.10;99.90;;;;;;6215679;23;20019;-74
2023/05/19 05:35:09;;;;;;;9.07;6.88;;;13.30;99.90;;;;;;6215737;23;20017;-74
2023/05/19 05:37:35;;;;;;;10.40;7.60;;;13.80;99.90;;;;;;6215871;23;20024;-74
2023/05/19 05:40:01;;;;;;;10.63;7.40;;;14.70;99.90;;;;;;6215105;23;20120;-74
2023/05/19 05:42:27;;;;;;;11.38;7.07;;;15.00;99.90;;;;;;6215505;23;20063;-76
2023/05/19 05:44:52;;;;;;;10.90;7.10;;;15.80;99.90;;;;;;6188600;23;20023;-74
2023/05/19 05:47:18;;;;;;;10.23;7.38;;;16.00;99.90;;;;;;6189172;23;20017;-74
2023/05/19 05:49:46;;;;;;;10.10;7.10;;;16.40;99.90;;;;;;6215481;23;20020;-74
2023/05/19 05:52:14;;;;;;;10.80;6.82;;;16.40;99.90;;;;;;6215713;23;20016;-73
2023/05/19 05:54:39;;;;;;;9.57;6.38;;;17.20;99.90;;;;;;6215639;23;20016;-73
2023/05/19 05:57:05;;;;;;;9.95;6.70;;;17.50;99.90;;;;;;6215313;23;20051;-74
2023/05/19 05:59:32;;;;;;;7.80;6.00;;;17.10;99.90;;;;;;6215643;23;20366;-74
2023/05/19 06:01:58;;;;;;;12.15;6.63;;;17.00;99.90;;;;;;6215587;23;20025;-75
2023/05/19 06:04:24;;;;;;;8.18;6.50;;;17.10;99.90;;;;;;6215586;23;20020;-73
2023/05/19 06:06:51;;;;;;;8.73;5.85;;;17.30;99.90;;;;;;6215411;23;20009;-74
2023/05/19 06:09:17;;;;;;;9.50;6.23;;;17.70;99.90;;;;;;6215282;23;20102;-74
2023/05/19 06:11:42;;;;;;;9.38;6.63;;;17.90;99.90;;;;;;6214921;23;20441;-75
2023/05/19 06:14:08;;;;;;;7.65;5.72;;;17.70;99.90;;;;;;6215342;23;20009;-74
2023/05/19 06:16:33;;;;;;;10.65;6.15;;;18.30;99.90;;;;;;6215142;23;20017;-74
2023/05/19 06:18:59;;;;;;;8.85;6.03;;;18.40;99.90;;;;;;6215113;23;20020;-74
2023/05/19 06:21:25;;;;;;;9.00;5.85;;;18.40;99.90;;;;;;6215045;23;20048;-73
2023/05/19 06:23:51;;;;;;;8.88;5.60;;;18.50;99.90;;;;;;6215136;23;20024;-74
2023/05/19 06:26:16;;;;;;;9.85;7.70;;;18.60;99.90;;;;;;6214975;23;20035;-73
2023/05/19 06:28:42;;;;;;;9.02;5.53;;;18.70;99.90;;;;;;6214990;23;20017;-73
2023/05/19 06:31:07;;;;;;;6.28;4.97;;;18.40;99.90;;;;;;6214803;23;20048;-73
2023/05/19 06:33:33;;;;;;;6.78;4.93;;;18.20;99.90;;;;;;6214958;23;20024;-73
2023/05/19 06:35:59;;;;;;;8.65;4.90;;;18.50;99.90;;;;;;6214628;23;20024;-72
2023/05/19 06:38:24;;;;;;;6.78;4.55;;;18.50;99.90;;;;;;6214525;23;20018;-73
2023/05/19 06:40:50;;;;;;;8.05;4.90;;;18.90;99.90;;;;;;6188929;23;20021;-75
2023/05/19 06:43:15;;;;;;;8.15;4.75;;;18.80;99.90;;;;;;6215560;23;20452;-74
2023/05/19 06:45:41;;;;;;;7.75;5.20;;;18.90;99.90;;;;;;6188458;23;20463;-75
2023/05/19 06:48:07;;;;;;;11.63;4.65;;;19.20;99.90;;;;;;6215303;23;20024;-74
2023/05/19 06:50:32;;;;;;;9.27;5.40;;;19.70;99.90;;;;;;6215180;23;20047;-74
2023/05/19 06:52:58;;;;;;;9.65;5.05;;;19.50;99.90;;;;;;6215341;23;20333;-74
2023/05/19 06:55:23;;;;;;;6.72;4.32;;;19.50;99.90;;;;;;6216161;23;20020;-73
2023/05/19 06:57:49;;;;;;;8.20;4.90;;;19.60;99.90;;;;;;6216991;23;20013;-73
2023/05/19 07:00:15;;;;;;;7.47;4.80;;;19.90;99.90;;;;;;6217314;23;20070;-74
2023/05/19 07:02:41;;;;;;;8.93;4.78;;;19.70;99.90;;;;;;6217868;23;20431;-73
2023/05/19 07:05:08;;;;;;;7.95;4.30;;;19.30;99.90;;;;;;6216924;23;20098;-74
2023/05/19 07:07:33;;;;;;;7.57;4.30;;;19.20;99.90;;;;;;6217148;23;20043;-75
2023/05/19 07:09:59;;;;;;;9.60;4.35;;;19.20;99.90;;;;;;6217046;23;20016;-78
2023/05/19 07:12:25;;;;;;;9.00;4.47;;;19.00;99.90;;;;;;6216650;23;20057;-74
2023/05/19 07:14:51;;;;;;;8.38;4.30;;;18.60;99.90;;;;;;6217021;23;20012;-74
2023/05/19 07:17:17;;;;;;;7.57;4.57;;;18.30;99.90;;;;;;6216996;23;20046;-74
2023/05/19 07:19:42;;;;;;;8.00;4.45;;;18.70;99.90;;;;;;6216463;23;20008;-73
2023/05/19 07:22:08;;;;;;;8.23;4.50;;;18.80;99.90;;;;;;6216568;23;20012;-73
2023/05/19 07:24:33;;;;;;;8.95;4.25;;;18.70;99.90;;;;;;6216863;23;20016;-73
2023/05/19 07:26:59;;;;;;;8.73;4.43;;;18.70;99.90;;;;;;6216590;23;20051;-75
2023/05/19 07:29:25;;;;;;;7.43;4.43;;;18.20;99.90;;;;;;6216796;23;20337;-74
2023/05/19 07:31:53;;;;;;;9.10;4.25;;;18.20;99.90;;;;;;6216308;23;20103;-74
2023/05/19 07:34:20;;;;;;;8.70;4.40;;;17.90;99.90;;;;;;6216012;23;20027;-73
2023/05/19 07:36:46;;;;;;;9.52;4.22;;;17.40;99.90;;;;;;6214215;23;20017;-73
2023/05/19 07:39:12;;;;;;;7.07;3.78;;;16.80;99.90;;;;;;6216177;23;20023;-73
2023/05/19 07:41:38;;;;;;;7.57;3.90;;;16.60;99.90;;;;;;6213584;23;20341;-73
2023/05/19 07:44:06;;;;;;;10.88;3.95;;;16.40;99.90;;;;;;6214908;23;20016;-72
2023/05/19 07:46:36;;;;;;;6.53;3.92;;;16.40;99.90;;;;;;6215297;23;20089;-73
2023/05/19 07:49:02;;;;;;;7.78;3.92;;;16.40;99.90;;;;;;6189520;23;20374;-76
2023/05/19 07:51:28;;;;;;;8.13;3.88;;;16.60;99.90;;;;;;6215342;23;20015;-76
2023/05/19 07:53:53;;;;;;;8.00;4.22;;;16.50;99.90;;;;;;6215543;23;20445;-77
2023/05/19 07:56:20;;;;;;;7.97;3.83;;;16.60;99.90;;;;;;6216310;23;20020;-74
2023/05/19 07:58:46;;;;;;;19.67;4.13;;;16.60;99.90;;;;;;6220242;23;20017;-73
2023/05/19 08:01:11;;;;;;;10.57;3.97;;;16.40;99.90;;;;;;6216340;23;20459;-73
2023/05/19 08:03:37;;;;;;;6.72;3.95;;;16.20;99.90;;;;;;6216595;23;20070;-73
2023/05/19 08:06:03;;;;;;;10.88;3.72;;;16.20;99.90;;;;;;6215561;23;20009;-73
2023/05/19 08:08:28;;;;;;;6.97;3.67;;;16.60;99.90;;;;;;6214882;23;20048;-73
2023/05/19 08:10:54;;;;;;;8.93;4.03;;;16.90;99.90;;;;;;6214472;23;20453;-73
2023/05/19 08:13:20;;;;;;;8.48;3.67;;;16.80;99.90;;;;;;6215298;23;20013;-74
2023/05/19 08:15:46;;;;;;;7.32;4.00;;;17.10;99.90;;;;;;6188616;23;20024;-74
2023/05/19 08:18:12;;;;;;;6.20;3.30;;;17.40;99.90;;;;;;6214219;23;20012;-74
2023/05/19 08:20:37;;;;;;;6.90;3.38;;;17.30;99.90;;;;;;6214592;23;20024;-73
2023/05/19 08:23:03;;;;;;;4.85;3.15;;;17.20;99.90;;;;;;6212964;23;20016;-74
2023/05/19 08:25:29;;;;;;;6.07;3.30;;;17.00;99.90;;;;;;6213679;23;20067;-74
2023/05/19 08:27:54;;;;;;;7.30;2.92;;;17.40;99.90;;;;;;6212144;23;20016;-74
2023/05/19 08:30:20;;;;;;;6.90;2.88;;;17.40;99.90;;;;;;6214414;23;20013;-74
2023/05/19 08:32:47;;;;;;;8.43;3.45;;;17.00;99.90;;;;;;6188523;23;20020;-74
2023/05/19 08:35:12;;;;;;;7.80;2.67;;;17.10;99.90;;;;;;6188195;23;20021;-74
2023/05/19 08:37:38;;;;;;;7.78;2.55;;;17.20;99.90;;;;;;6213621;23;20298;-73
2023/05/19 08:40:05;;;;;;;9.02;3.20;;;17.30;99.90;;;;;;6213432;23;20009;-74
2023/05/19 08:42:32;;;;;;;6.32;2.75;;;17.60;99.90;;;;;;6214943;23;20036;-74
2023/05/19 08:44:58;;;;;;;7.07;3.03;;;17.60;99.90;;;;;;6213798;23;20372;-74
2023/05/19 08:47:24;;;;;;;5.43;2.72;;;17.50;99.10;;;;;;6215008;23;20033;-74
2023/05/19 08:49:52;;;;;;;6.35;2.45;;;17.70;99.90;;;;;;6213827;23;20012;-74
2023/05/19 08:52:56;;;;;;;6.47;2.53;;;17.80;99.20;;;;;;6214379;23;20012;-74
2023/05/19 08:55:35;;;;;;;5.85;2.40;;;17.90;99.70;;;;;;6213257;23;20369;-77
2023/05/19 08:58:03;;;;;;;5.38;2.20;;;18.10;98.00;;;;;;6214298;23;20087;-75
2023/05/19 09:00:28;;;;;;;;;;;18.10;97.10;;;;;;6214498;23;20023;-74
2023/05/19 09:02:54;;;;;;;5.40;2.10;;;18.00;96.70;;;;;;6187637;23;20295;-75
2023/05/19 09:05:20;;;;;;;5.30;2.10;;;18.10;96.80;;;;;;6187184;23;20353;-75
2023/05/19 09:07:47;;;;;;;6.82;2.47;;;18.20;96.50;;;;;;6212812;23;20405;-75
2023/05/19 09:10:14;;;;;;;4.97;1.80;;;18.20;97.00;;;;;;6187934;23;20017;-74
2023/05/19 09:12:44;;;;;;;;;;;18.40;96.00;;;;;;6214857;23;20055;-74
2023/05/19 09:15:11;;;;;;;5.75;2.75;;;18.30;96.10;;;;;;6213284;23;19922;-74
2023/05/19 09:17:38;;;;;;;9.07;2.40;;;18.40;96.80;;;;;;6212738;23;20013;-75
2023/05/19 09:20:11;;;;;;;6.68;2.33;;;18.30;96.00;;;;;;6215095;23;20437;-74
2023/05/19 09:22:41;;;;;;;5.78;2.28;;;18.50;96.20;;;;;;6212819;23;20112;-74
2023/05/19 09:25:18;;;;;;;7.35;2.58;;;18.30;96.00;;;;;;6214699;23;20463;-74
2023/05/19 09:27:46;;;;;;;7.68;2.50;;;18.30;96.30;;;;;;6214604;23;20016;-74
2023/05/19 09:30:12;;;;;;;5.25;2.15;;;18.50;95.90;;;;;;6212197;23;20385;-74
2023/05/19 09:32:38;;;;;;;7.18;2.50;;;18.50;95.60;;;;;;6214243;23;20013;-74
2023/05/19 09:35:04;;;;;;;4.82;1.95;;;18.50;94.70;;;;;;6214423;23;20023;-74
2023/05/19 09:37:30;;;;;;;5.90;2.10;;;18.60;94.70;;;;;;6213149;23;20013;-74
2023/05/19 09:39:57;;;;;;;4.90;2.08;;;18.60;94.80;;;;;;6211868;23;20016;-75
2023/05/19 09:42:26;;;;;;;6.00;2.15;;;18.70;95.10;;;;;;6214453;23;20039;-74
2023/05/19 09:45:02;;;;;;;5.15;2.08;;;18.70;95.10;;;;;;6211372;23;20099;-74
2023/05/19 09:47:33;;;;;;;4.97;1.90;;;18.70;93.90;;;;;;6211096;23;20511;-74
2023/05/19 09:49:58;;;;;;;6.03;1.73;;;19.20;94.40;;;;;;6213746;23;20088;-74
2023/05/19 09:52:24;;;;;;;7.07;2.53;;;19.00;94.00;;;;;;6213374;23;20040;-74
2023/05/19 09:54:50;;;;;;;9.77;2.08;;;18.90;94.10;;;;;;6213465;23;20020;-74
2023/05/19 09:57:16;;;;;;;6.05;2.25;;;18.60;93.90;;;;;;6213850;23;20016;-75
2023/05/19 09:59:43;;;;;;;4.63;2.20;;;18.80;94.40;;;;;;6214663;23;20084;-74
2023/05/19 10:02:16;;;;;;;4.87;1.80;;;18.90;95.00;;;;;;6214153;23;20384;-73
2023/05/19 10:04:42;;;;;;;5.82;1.98;;;19.10;93.50;;;;;;6214867;23;20017;-73
2023/05/19 10:07:10;;;;;;;5.70;2.08;;;18.90;93.60;;;;;;6214052;23;20024;-73
2023/05/19 10:09:38;;;;;;;7.05;2.30;;;18.80;93.20;;;;;;6214312;23;20074;-74
2023/05/19 10:12:05;;;;;;;4.68;2.22;;;18.70;94.40;;;;;;6215536;23;20016;-74
2023/05/19 10:14:31;;;;;;;9.40;2.78;;;18.40;94.00;;;;;;6214805;23;20016;-74
2023/05/19 10:16:57;;;;;;;6.00;1.90;;;18.40;93.50;;;;;;6215845;23;20017;-74
2023/05/19 10:19:27;;;;;;;6.80;2.07;;;18.30;93.00;;;;;;6214996;23;20026;-73
2023/05/19 10:21:53;;;;;;;6.32;1.90;;;18.10;93.00;;;;;;6213831;23;20013;-74
2023/05/19 10:24:20;;;;;;;3.63;1.63;;;18.60;93.40;;;;;;6212615;23;20499;-73
2023/05/19 10:26:51;;;;;;;7.32;1.92;;;18.50;92.60;;;;;;6215143;23;20009;-73
2023/05/19 10:29:24;;;;;;;7.63;2.28;;;18.80;93.10;;;;;;6214901;23;20020;-75
2023/05/19 10:31:51;;;;;;;4.93;1.83;;;19.40;94.30;;;;;;6213097;23;20021;-74
2023/05/19 10:34:24;;;;;;;;;;;19.60;93.20;;;;;;6215876;23;20012;-74
2023/05/19 10:37:04;;;;;;;5.15;1.80;;;19.60;91.20;;;;;;6215363;23;19920;-74
2023/05/19 10:39:34;;;;;;;5.40;1.80;;;19.60;91.90;;;;;;6216600;23;20012;-73
2023/05/19 10:42:23;;;;;;;5.55;1.77;;;19.10;90.80;;;;;;6216300;23;20020;-73
2023/05/19 10:45:20;;;;;;;4.28;2.03;;;19.00;91.40;;;;;;6140461;23;20020;-74
2023/05/19 10:47:45;;;;;;;4.40;1.80;;;19.30;91.50;;;;;;6213681;23;20340;-73
2023/05/19 10:50:11;;;;;;;6.53;2.08;;;19.50;91.30;;;;;;6189993;23;20043;-74
2023/05/19 10:52:38;;;;;;;4.93;1.85;;;19.40;90.80;;;;;;6215855;23;20017;-73
2023/05/19 10:55:07;;;;;;;6.63;2.03;;;19.50;89.80;;;;;;6216636;23;20285;-73
2023/05/19 10:57:33;;;;;;;6.43;1.70;;;19.80;91.60;;;;;;6216212;23;20012;-73
2023/05/19 11:00:10;;;;;;;6.00;1.80;;;19.80;92.10;;;;;;6215374;23;20388;-74
2023/05/19 11:02:39;;;;;;;5.68;1.80;;;20.00;91.40;;;;;;6216173;23;20013;-73
2023/05/19 11:05:13;;;;;;;5.45;2.05;;;19.70;90.30;;;;;;6215662;23;20020;-74
2023/05/19 11:08:05;;;;;;;9.55;2.10;;;19.30;90.50;;;;;;6215665;23;20017;-74
2023/05/19 11:10:31;;;;;;;6.40;2.15;;;19.20;90.30;;;;;;6213810;23;20100;-74
2023/05/19 11:12:57;;;;;;;6.07;1.67;;;19.20;91.20;;;;;;6215086;23;20055;-73
2023/05/19 11:15:26;;;;;;;3.90;1.75;;;19.40;91.20;;;;;;6215915;23;20310;-73
2023/05/19 11:17:52;;;;;;;5.68;1.92;;;19.60;90.10;;;;;;6214963;23;20425;-73
2023/05/19 11:20:25;;;;;;;6.15;2.05;;;19.60;89.40;;;;;;6216242;23;20020;-73
2023/05/19 11:23:07;;;;;;;4.93;1.98;;;19.50;89.70;;;;;;6217029;23;20013;-74
2023/05/19 11:25:45;;;;;;;4.10;1.75;;;19.50;89.20;;;;;;6214631;23;20021;-73
2023/05/19 11:28:12;;;;;;;5.50;1.80;;;19.60;89.60;;;;;;6212353;23;20449;-73
2023/05/19 11:30:42;;;;;;;4.50;2.23;;;19.70;90.00;;;;;;6212209;23;20099;-73
2023/05/19 11:33:09;;;;;;;5.20;2.22;;;19.60;89.20;;;;;;6213975;23;20436;-73
2023/05/19 11:35:35;;;;;;;5.63;2.00;;;19.50;89.60;;;;;;6186723;23;20024;-73
2023/05/19 11:38:02;;;;;;;6.97;1.88;;;19.80;90.20;;;;;;6187085;23;20071;-73
2023/05/19 11:40:28;;;;;;;5.03;1.83;;;20.20;90.00;;;;;;6213740;23;20072;-73
2023/05/19 11:42:53;;;;;;;4.93;1.67;;;20.50;88.70;;;;;;6214640;23;20080;-73
2023/05/19 11:45:26;;;;;;;5.85;2.25;;;20.40;89.10;;;;;;6213991;23;20444;-73
2023/05/19 11:47:55;;;;;;;4.32;1.83;;;20.60;88.40;;;;;;6188719;23;20019;-73
2023/05/19 11:50:21;;;;;;;6.68;2.30;;;20.70;87.50;;;;;;6218657;23;20088;-73
2023/05/19 11:52:47;;;;;;;9.55;2.53;;;20.50;87.20;;;;;;6214482;23;20055;-73
2023/05/19 11:55:16;;;;;;;6.63;1.98;;;20.30;88.60;;;;;;6213547;23;20115;-74
2023/05/19 11:58:00;;;;;;;4.35;1.80;;;20.10;88.60;;;;;;6213350;23;20047;-73
2023/05/19 12:00:35;;;;;;;4.97;1.80;;;20.00;89.50;;;;;;6213066;23;20192;-73
2023/05/19 12:03:01;;;;;;;6.00;1.80;;;20.10;89.20;;;;;;6208993;23;20257;-74
2023/05/19 12:05:28;;;;;;;8.18;1.95;;;20.00;87.80;;;;;;6211614;23;20024;-73
2023/05/19 12:07:53;;;;;;;7.68;2.13;;;20.00;88.70;;;;;;6213261;23;20017;-73
2023/05/19 12:10:27;;;;;;;6.00;2.20;;;20.30;88.00;;;;;;6212575;23;20019;-73
2023/05/19 12:12:53;;;;;;;5.85;2.10;;;20.40;87.80;;;;;;6213055;23;20027;-73
2023/05/19 12:15:23;;;;;;;6.55;1.98;;;20.70;88.90;;;;;;6211350;23;20021;-73
2023/05/19 12:17:57;;;;;;;6.53;2.40;;;20.60;86.30;;;;;;6212292;23;20034;-73
2023/05/19 12:20:26;;;;;;;4.70;2.10;;;20.30;86.70;;;;;;6212357;23;20047;-75
2023/05/19 12:22:54;;;;;;;8.35;2.10;;;20.00;86.80;;;;;;6211392;23;20088;-74
2023/05/19 12:25:19;;;;;;;6.10;2.13;;;20.00;87.30;;;;;;6211165;23;20089;-74
2023/05/19 12:27:47;;;;;;;7.53;1.77;;;20.00;87.40;;;;;;6212289;23;20511;-74
2023/05/19 12:30:13;;;;;;;;;;;20.40;87.80;;;;;;6211178;23;20027;-74
2023/05/19 12:32:38;;;;;;;5.65;1.90;;;20.60;86.30;;;;;;6211843;23;19916;-73
2023/05/19 12:35:05;;;;;;;7.57;2.10;;;21.00;86.10;;;;;;6210923;23;20083;-74
2023/05/19 12:37:33;;;;;;;4.90;2.05;;;21.50;86.90;;;;;;6212049;23;20074;-73
2023/05/19 12:40:00;;;;;;;7.35;2.33;;;21.40;84.40;;;;;;6211843;23;20020;-73
2023/05/19 12:42:30;;;;;;;6.95;2.05;;;21.80;85.00;;;;;;6211841;23;20008;-74
2023/05/19 12:44:59;;;;;;;5.40;2.42;;;21.80;84.00;;;;;;6208132;23;20104;-73
2023/05/19 12:47:33;;;;;;;5.07;2.30;;;21.90;85.00;;;;;;6212294;23;20031;-73
2023/05/19 12:49:59;;;;;;;6.78;2.35;;;22.10;83.20;;;;;;6210842;23;20460;-73
2023/05/19 12:52:26;;;;;;;6.60;2.25;;;22.30;84.40;;;;;;6214065;23;20051;-73